Darra — 2992QD — position and weather

sailwx.info

Track history (hours):
 
Tides and Currents Weather Stations Pressure Air Temp Water Temp Dewpoint Dewpoint Depression Visibility Wind Speed Wind Dir Waves Ship Positions

Darra

Last reported at 2018-Jun-20 04:58 UTC. Time now 2018-Jun-20 05:20 UTC.
Position S 27°19' E 153°12'.

Length 79 m.

Type: Cargo ship. MMSI: 503012060.

Date/timePositionNaut miles runAvg speedWind from/ knotsBaromVisibWave heightAir tempDewpointWater temp
2018-Jun-20 04:58S 27°19' E 153°12'4 6.7
2018-Jun-20 04:25S 27°22' E 153°10'2 0.1
2018-Jun-19 15:25S 27°24' E 153°09'3 4.5
2018-Jun-19 14:50S 27°21' E 153°11'2 6.2
2018-Jun-19 14:26S 27°19' E 153°12'6 5.8
2018-Jun-19 13:27S 27°15' E 153°17'3 6.1
2018-Jun-19 12:55S 27°12' E 153°18'5 6.3
2018-Jun-19 12:05S 27°07' E 153°19'1 6.3
2018-Jun-19 11:59S 27°06' E 153°19'3 1.9
2018-Jun-19 10:19S 27°04' E 153°17'0 0.0
2018-Jun-19 09:41S 27°04' E 153°17'0 0.0
2018-Jun-19 09:28S 27°04' E 153°17'2 0.5
2018-Jun-19 06:22S 27°05' E 153°18'3 6.7
2018-Jun-19 05:54S 27°08' E 153°20'3 7.5
2018-Jun-19 05:27S 27°11' E 153°19'3 6.7
2018-Jun-19 04:59S 27°14' E 153°17'9 6.8
2018-Jun-19 03:40S 27°21' E 153°11'3 0.2
2018-Jun-18 13:13S 27°18' E 153°13'2 5.6
2018-Jun-18 12:47S 27°16' E 153°15'2 5.7
2018-Jun-18 12:24S 27°14' E 153°17'6 6.0
2018-Jun-18 11:25S 27°09' E 153°20'4 6.2
2018-Jun-18 10:46S 27°05' E 153°18'2 0.9
2018-Jun-18 08:30S 27°04' E 153°17'7 1.7
2018-Jun-18 04:34S 27°10' E 153°19'2 6.7
2018-Jun-18 04:13S 27°12' E 153°18'2 7.0
2018-Jun-18 03:54S 27°14' E 153°17'3 7.0
2018-Jun-18 03:28S 27°16' E 153°15'6 6.5
2018-Jun-18 02:33S 27°21' E 153°11'  
2018-Jun-13 11:04S 27°25' E 153°08'1 7.2
2018-Jun-13 10:58S 27°25' E 153°09'3 6.7
2018-Jun-13 10:29S 27°22' E 153°10'2 5.1
2018-Jun-13 10:01S 27°20' E 153°12'0 0.1
2018-Jun-13 09:24S 27°20' E 153°12'0 0.1
2018-Jun-13 09:00S 27°20' E 153°12'2 3.6
2018-Jun-13 08:30S 27°18' E 153°13'3 6.7
2018-Jun-13 08:01S 27°16' E 153°15'3 6.7
2018-Jun-13 07:30S 27°13' E 153°18'4 7.2
2018-Jun-13 07:01S 27°10' E 153°19'4 7.1
2018-Jun-13 06:31S 27°06' E 153°19'3 6.1
2018-Jun-13 06:00S 27°04' E 153°17'0 0.1
2018-Jun-13 05:30S 27°04' E 153°17'0 0.0
2018-Jun-13 05:00S 27°04' E 153°17'0 0.0
2018-Jun-13 04:30S 27°04' E 153°17'0 0.1
2018-Jun-13 03:46S 27°04' E 153°17'0 0.0
2018-Jun-13 01:14S 27°04' E 153°17'4 7.6
2018-Jun-13 00:40S 27°07' E 153°19'2 7.9
2018-Jun-13 00:23S 27°10' E 153°19'3 7.2
2018-Jun-12 23:59S 27°12' E 153°18'3 6.8
2018-Jun-12 23:30S 27°15' E 153°16'4 7.0
2018-Jun-12 22:57S 27°18' E 153°13'4 6.8
2018-Jun-12 22:24S 27°21' E 153°11'3 0.2
2018-Jun-12 09:03S 27°24' E 153°09'1 7.0
2018-Jun-12 08:57S 27°23' E 153°09'3 6.8
2018-Jun-12 08:29S 27°21' E 153°11'1 2.1
2018-Jun-12 07:57S 27°20' E 153°12'1 2.5
2018-Jun-12 07:22S 27°19' E 153°13'3 6.4
2018-Jun-12 06:57S 27°16' E 153°15'3 6.6
2018-Jun-12 06:29S 27°14' E 153°17'6 7.0
2018-Jun-12 05:39S 27°09' E 153°19'1 7.3
2018-Jun-12 05:29S 27°07' E 153°19'4 1.4
2018-Jun-12 02:18S 27°03' E 153°17'0 0.0
2018-Jun-12 01:59S 27°03' E 153°17'8 3.2
2018-Jun-11 23:25S 27°12' E 153°19'3 7.1
2018-Jun-11 22:57S 27°14' E 153°16'4 7.4
2018-Jun-11 22:28S 27°17' E 153°14'3 6.9
2018-Jun-11 21:59S 27°20' E 153°12'4 6.9
2018-Jun-11 21:27S 27°23' E 153°10'1 0.1
2018-Jun-11 07:52S 27°24' E 153°09'2 6.5
2018-Jun-11 07:30S 27°22' E 153°11'3 6.5
2018-Jun-11 06:59S 27°19' E 153°12'3 6.3
2018-Jun-11 06:30S 27°16' E 153°15'3 6.4
2018-Jun-11 06:00S 27°14' E 153°17'6 6.8
2018-Jun-11 05:11S 27°09' E 153°19'1 7.1
2018-Jun-11 05:00S 27°08' E 153°19'3 6.3
2018-Jun-11 04:30S 27°05' E 153°18'1 0.1
2018-Jun-10 23:30S 27°04' E 153°18'6 8.4
2018-Jun-10 22:48S 27°10' E 153°20'2 8.1
2018-Jun-10 22:30S 27°12' E 153°18'4 7.7
2018-Jun-10 22:00S 27°15' E 153°16'4 7.6
2018-Jun-10 21:30S 27°18' E 153°13'4 7.4
2018-Jun-10 21:00S 27°21' E 153°11'4 6.9
2018-Jun-10 20:28S 27°24' E 153°09'  
Track history (hours):
 
Tides and Currents Weather Stations Pressure Air Temp Water Temp Dewpoint Dewpoint Depression Visibility Wind Speed Wind Dir Waves Ship Positions

Darra

Last reported at 2018-Jun-20 04:58 UTC. Time now 2018-Jun-20 05:20 UTC.
Position S 27°19' E 153°12'.

Length 79 m.

Type: Cargo ship. MMSI: 503012060.

Date/timePositionNaut miles runAvg speedWind from/ knotsBaromVisibWave heightAir tempDewpointWater temp
2018-Jun-20 04:58S 27°19' E 153°12'4 6.7
2018-Jun-20 04:25S 27°22' E 153°10'2 0.1
2018-Jun-19 15:25S 27°24' E 153°09'3 4.5
2018-Jun-19 14:50S 27°21' E 153°11'2 6.2
2018-Jun-19 14:26S 27°19' E 153°12'6 5.8
2018-Jun-19 13:27S 27°15' E 153°17'3 6.1
2018-Jun-19 12:55S 27°12' E 153°18'5 6.3
2018-Jun-19 12:05S 27°07' E 153°19'1 6.3
2018-Jun-19 11:59S 27°06' E 153°19'3 1.9
2018-Jun-19 10:19S 27°04' E 153°17'0 0.0
2018-Jun-19 09:41S 27°04' E 153°17'0 0.0
2018-Jun-19 09:28S 27°04' E 153°17'2 0.5
2018-Jun-19 06:22S 27°05' E 153°18'3 6.7
2018-Jun-19 05:54S 27°08' E 153°20'3 7.5
2018-Jun-19 05:27S 27°11' E 153°19'3 6.7
2018-Jun-19 04:59S 27°14' E 153°17'9 6.8
2018-Jun-19 03:40S 27°21' E 153°11'3 0.2
2018-Jun-18 13:13S 27°18' E 153°13'2 5.6
2018-Jun-18 12:47S 27°16' E 153°15'2 5.7
2018-Jun-18 12:24S 27°14' E 153°17'6 6.0
2018-Jun-18 11:25S 27°09' E 153°20'4 6.2
2018-Jun-18 10:46S 27°05' E 153°18'2 0.9
2018-Jun-18 08:30S 27°04' E 153°17'7 1.7
2018-Jun-18 04:34S 27°10' E 153°19'2 6.7
2018-Jun-18 04:13S 27°12' E 153°18'2 7.0
2018-Jun-18 03:54S 27°14' E 153°17'3 7.0
2018-Jun-18 03:28S 27°16' E 153°15'6 6.5
2018-Jun-18 02:33S 27°21' E 153°11'  
2018-Jun-13 11:04S 27°25' E 153°08'1 7.2
2018-Jun-13 10:58S 27°25' E 153°09'3 6.7
2018-Jun-13 10:29S 27°22' E 153°10'2 5.1
2018-Jun-13 10:01S 27°20' E 153°12'0 0.1
2018-Jun-13 09:24S 27°20' E 153°12'0 0.1
2018-Jun-13 09:00S 27°20' E 153°12'2 3.6
2018-Jun-13 08:30S 27°18' E 153°13'3 6.7
2018-Jun-13 08:01S 27°16' E 153°15'3 6.7
2018-Jun-13 07:30S 27°13' E 153°18'4 7.2
2018-Jun-13 07:01S 27°10' E 153°19'4 7.1
2018-Jun-13 06:31S 27°06' E 153°19'3 6.1
2018-Jun-13 06:00S 27°04' E 153°17'0 0.1
2018-Jun-13 05:30S 27°04' E 153°17'0 0.0
2018-Jun-13 05:00S 27°04' E 153°17'0 0.0
2018-Jun-13 04:30S 27°04' E 153°17'0 0.1
2018-Jun-13 03:46S 27°04' E 153°17'0 0.0
2018-Jun-13 01:14S 27°04' E 153°17'4 7.6
2018-Jun-13 00:40S 27°07' E 153°19'2 7.9
2018-Jun-13 00:23S 27°10' E 153°19'3 7.2
2018-Jun-12 23:59S 27°12' E 153°18'3 6.8
2018-Jun-12 23:30S 27°15' E 153°16'4 7.0
2018-Jun-12 22:57S 27°18' E 153°13'4 6.8
2018-Jun-12 22:24S 27°21' E 153°11'3 0.2
2018-Jun-12 09:03S 27°24' E 153°09'1 7.0
2018-Jun-12 08:57S 27°23' E 153°09'3 6.8
2018-Jun-12 08:29S 27°21' E 153°11'1 2.1
2018-Jun-12 07:57S 27°20' E 153°12'1 2.5
2018-Jun-12 07:22S 27°19' E 153°13'3 6.4
2018-Jun-12 06:57S 27°16' E 153°15'3 6.6
2018-Jun-12 06:29S 27°14' E 153°17'6 7.0
2018-Jun-12 05:39S 27°09' E 153°19'1 7.3
2018-Jun-12 05:29S 27°07' E 153°19'4 1.4
2018-Jun-12 02:18S 27°03' E 153°17'0 0.0
2018-Jun-12 01:59S 27°03' E 153°17'8 3.2
2018-Jun-11 23:25S 27°12' E 153°19'3 7.1
2018-Jun-11 22:57S 27°14' E 153°16'4 7.4
2018-Jun-11 22:28S 27°17' E 153°14'3 6.9
2018-Jun-11 21:59S 27°20' E 153°12'4 6.9
2018-Jun-11 21:27S 27°23' E 153°10'1 0.1
2018-Jun-11 07:52S 27°24' E 153°09'2 6.5
2018-Jun-11 07:30S 27°22' E 153°11'3 6.5
2018-Jun-11 06:59S 27°19' E 153°12'3 6.3
2018-Jun-11 06:30S 27°16' E 153°15'3 6.4
2018-Jun-11 06:00S 27°14' E 153°17'6 6.8
2018-Jun-11 05:11S 27°09' E 153°19'1 7.1
2018-Jun-11 05:00S 27°08' E 153°19'3 6.3
2018-Jun-11 04:30S 27°05' E 153°18'1 0.1
2018-Jun-10 23:30S 27°04' E 153°18'6 8.4
2018-Jun-10 22:48S 27°10' E 153°20'2 8.1
2018-Jun-10 22:30S 27°12' E 153°18'4 7.7
2018-Jun-10 22:00S 27°15' E 153°16'4 7.6
2018-Jun-10 21:30S 27°18' E 153°13'4 7.4
2018-Jun-10 21:00S 27°21' E 153°11'4 6.9
2018-Jun-10 20:28S 27°24' E 153°09'  

Dump ship's entire track history